Terminal Aerodrome Forecast
Issued by NWS Cleveland, OH

Home | Current Version | Previous Version | Text Only | Print | Product List | Glossary On
Versions: 1 2 3 4 5 6 7 8 9 10 11 12 13 14 15 16 17 18 19 20 21 22 23
000
FTUS41 KCLE 060900 AAA
TAFMFD
TAF AMD
KMFD 060921Z 0609/0706 04004KT 1/4SM FG VV002
      TEMPO 0610/0613 VRB03KT 1/2SM FG OVC004
     FM061300 VRB05KT 3SM BR BKN006
     FM061500 32006KT P6SM BKN010
     FM061700 33005KT P6SM SCT015 BKN250=

USA.gov is the U.S. government's official web portal to all federal, state and local government web resources and services.